Terminal Aerodrome Forecast
Issued by NWS

Home | Current Version | Previous Version | Text Only | Print | Product List | Glossary On
Versions: 1 2 3 4 5 6 7 8 9 10 11 12 13 14 15 16 17 18
924
FTAK31 PAJN 251126
TAFAYA
TAF
PAYA 251126Z 2512/2612 11003KT P6SM OVC003
     FM252100 22005KT P6SM VCSH BKN008 OVC015
     FM260600 10003KT P6SM VCSH SCT008 OVC015
     FM260900 10003KT 4SM BR VCSH BKN008 OVC015
      AMD LTD TO CLD VIS AND WIND=

USA.gov is the U.S. government's official web portal to all federal, state and local government web resources and services.